Latest Weather Observations for Scone Airport

IDN60801

Issued at 10:03 pm EDT Tuesday 24 January 2017 (issued every 30 minutes, with the page automatically refreshed every 10 minutes)

About weather observations | Map of weather stations | Latest weather observations for NSW | Other Formats
Station Details ID: 061363 Name: SCONE AIRPORT AWS Lat: -32.03 Lon: 150.83 Height: 221.4 m
Data from the previous 72 hours. | See also: Recent months at Scone Airport
Date/Time
EDT
Temp
°C
App
Temp
°C
Dew
Point
°C
Rel
Hum
%
Delta-T
°C
Wind Press
QNH
hPa
Press
MSL
hPa
Rain since
9am
mm
Dir  Spd
km/h
Gust
km/h
Spd
kts
Gust
kts
24/09:30pm 25.6 24.6 21.9 80 2.5 S 30 39 16 21 1013.9 1012.8 0.0
24/09:20pm 26.8 25.0 21.6 73 3.5 SSE 33 43 18 23 1012.9 1011.7 0.0
24/09:00pm 31.8 28.8 18.7 45 8.6 SE 32 41 17 22 1012.2 1011.0 0.0
24/08:50pm 32.6 31.7 19.1 44 8.9 SSE 22 46 12 25 1011.5 1010.4 0.0
24/08:30pm 32.3 36.0 19.9 48 8.3 CALM 0 6 0 3 1010.7 1009.6 0.0
24/08:00pm 33.2 35.4 19.7 45 9.0 NW 7 11 4 6 1010.4 1009.3 0.0
24/07:30pm 34.1 35.6 19.0 41 10.0 NNE 9 13 5 7 1009.8 1008.7 0.0
24/07:00pm 35.0 36.7 18.6 38 10.8 NNW 7 11 4 6 1009.5 1008.4 0.0
24/06:30pm 36.3 35.8 17.9 33 12.1 WNW 17 22 9 12 1008.9 1007.7 0.0
24/06:00pm 37.7 37.8 16.6 28 13.7 WNW 11 17 6 9 1008.7 1007.5 0.0
24/05:30pm 37.8 37.8 17.2 29 13.4 WNW 13 19 7 10 1008.6 1007.4 0.0
24/05:00pm 37.3 36.2 16.3 29 13.5 NNW 17 24 9 13 1008.6 1007.4 0.0
24/04:30pm 37.9 37.0 16.8 29 13.7 NW 17 22 9 12 1009.0 1007.8 0.0
24/04:00pm 37.8 35.7 16.1 27 14.0 WNW 22 33 12 18 1009.0 1007.8 0.0
24/03:30pm 38.9 36.3 15.9 25 14.8 NW 24 37 13 20 1009.1 1007.9 0.0
24/03:00pm 38.4 36.0 15.5 26 14.7 NW 22 35 12 19 1009.3 1008.1 0.0
24/02:30pm 38.6 36.2 16.3 27 14.4 NW 24 41 13 22 1009.6 1008.5 0.0
24/02:00pm 37.1 33.8 16.1 29 13.5 NNW 28 41 15 22 1009.8 1008.7 0.0
24/01:42pm 37.9 34.7 16.2 27 14.0 NW 28 46 15 25 1009.9 1008.8 0.0
24/01:30pm 36.3 32.8 15.4 28 13.3 NNW 28 43 15 23 1009.9 1008.8 0.0
24/01:00pm 36.7 33.1 15.2 27 13.6 NW 28 48 15 26 1010.5 1009.4 0.0
24/12:53pm 36.5 32.6 15.6 29 13.3 NW 30 48 16 26 1010.5 1009.4 0.0
24/12:30pm 35.6 31.5 14.8 28 13.0 NNW 30 44 16 24 1010.7 1009.6 0.0
24/12:00pm 35.7 31.6 14.9 29 13.1 NW 30 44 16 24 1011.3 1010.2 0.0
24/11:30am 35.7 31.4 15.4 29 12.8 WNW 32 41 17 22 1011.6 1010.5 0.0
24/11:01am 34.1 29.9 13.5 28 12.6 WNW 28 48 15 26 1011.9 1010.7 0.0
24/11:00am 34.5 31.0 14.4 30 12.5 NW 26 41 14 22 1011.9 1010.7 0.0
24/10:30am 34.3 30.9 13.7 29 12.7 WNW 24 39 13 21 1012.0 1010.8 0.0
24/10:00am 33.5 30.0 13.5 29 12.2 NW 24 35 13 19 1012.3 1011.1 0.0
24/09:30am 32.2 28.0 13.4 32 11.4 NW 28 41 15 22 1012.2 1011.0 0.0
24/09:00am 31.1 26.7 12.9 32 10.9 NW 28 41 15 22 1012.2 1011.0 0.0
24/08:30am 30.1 26.7 12.5 34 10.5 NW 22 30 12 16 1012.0 1010.8 0.0
24/08:00am 30.2 27.0 13.0 34 10.3 NW 22 33 12 18 1011.6 1010.5 0.0
24/07:30am 29.5 26.8 12.9 36 9.9 NW 19 22 10 12 1011.4 1010.3 0.0
24/07:00am 28.6 27.2 13.3 39 9.2 NW 13 17 7 9 1011.2 1010.1 0.0
24/06:30am 28.5 26.3 13.2 39 9.1 NW 17 28 9 15 1010.9 1009.8 0.0
24/06:00am 29.0 25.8 13.2 37 9.5 NW 22 35 12 19 1010.4 1009.3 0.0
24/05:30am 29.5 27.6 12.9 36 9.9 NW 15 24 8 13 1010.3 1009.2 0.0
24/05:00am 29.9 27.2 12.8 35 10.2 NW 19 24 10 13 1009.9 1008.8 0.0
24/04:30am 29.4 28.0 12.3 34 10.1 NNW 11 15 6 8 1009.5 1008.4 0.0
24/04:00am 30.4 27.1 12.8 34 10.5 NNW 22 32 12 17 1009.5 1008.4 0.0
24/03:30am 30.6 27.6 12.5 33 10.8 NNW 20 30 11 16 1009.8 1008.7 0.0
24/03:00am 30.2 27.4 12.6 34 10.5 NW 19 26 10 14 1009.9 1008.8 0.0
24/02:30am 27.6 26.6 14.6 45 7.9 NW 13 20 7 11 1010.1 1009.0 0.0
24/02:00am 23.9 25.1 15.9 61 4.9 NW 4 7 2 4 1010.2 1009.1 0.0
24/01:30am 22.8 24.3 15.6 64 4.4 NE 2 7 1 4 1010.3 1009.2 0.0
24/01:00am 23.4 24.6 16.0 63 4.5 NNE 4 9 2 5 1010.2 1009.1 0.0
24/12:30am 23.5 24.9 15.3 60 5.0 NNE 2 6 1 3 1010.4 1009.3 0.0
24/12:00am 23.4 24.1 15.7 62 4.7 NW 6 11 3 6 1010.6 1009.5 0.0
 
Date/Time
EDT
Temp
°C
App
Temp
°C
Dew
Point
°C
Rel
Hum
%
Delta-T
°C
Wind Press
QNH
hPa
Press
MSL
hPa
Rain since
9am
mm
Dir  Spd
km/h
Gust
km/h
Spd
kts
Gust
kts
23/11:30pm 25.2 26.1 15.2 54 6.1 NNW 4 7 2 4 1010.7 1009.6 0.0
23/11:00pm 25.9 26.9 15.3 52 6.5 NE 4 7 2 4 1010.6 1009.5 0.0
23/10:30pm 28.5 28.2 14.3 41 8.6 NNW 9 11 5 6 1010.5 1009.4 0.0
23/10:00pm 28.4 28.2 14.6 43 8.4 NW 9 13 5 7 1010.5 1009.4 0.0
23/09:30pm 28.9 28.6 14.3 40 8.9 NW 9 11 5 6 1010.4 1009.3 0.0
23/09:00pm 30.1 29.8 13.4 36 10.1 NNW 7 9 4 5 1010.0 1008.9 0.0
23/08:30pm 32.3 31.3 13.5 32 11.4 NNW 11 17 6 9 1009.8 1008.7 0.0
23/08:00pm 32.9 31.8 13.0 30 12.1 NNW 11 15 6 8 1009.7 1008.6 0.0
23/07:30pm 34.6 32.4 13.4 28 13.0 NW 17 22 9 12 1009.4 1008.2 0.0
23/07:00pm 35.6 33.9 13.7 27 13.5 NW 15 20 8 11 1009.2 1008.0 0.0
23/06:30pm 36.6 35.2 13.4 25 14.3 NNW 13 19 7 10 1008.9 1007.7 0.0
23/06:00pm 36.0 34.3 13.5 26 13.9 N 15 22 8 12 1008.9 1007.7 0.0
23/05:30pm 36.5 35.5 13.3 25 14.3 ENE 11 22 6 12 1009.0 1007.8 0.0
23/05:00pm 36.3 34.8 13.1 25 14.3 N 13 19 7 10 1009.4 1008.2 0.0
23/04:30pm 36.8 36.2 13.5 24 14.4 NNE 9 17 5 9 1009.6 1008.5 0.0
23/04:00pm 36.3 35.0 13.7 25 14.0 NW 13 22 7 12 1010.0 1008.9 0.0
23/03:30pm 35.8 35.0 13.9 27 13.6 N 11 20 6 11 1010.4 1009.3 0.0
23/03:00pm 35.3 34.7 13.5 27 13.4 NNE 9 17 5 9 1010.6 1009.5 0.0
23/02:30pm 35.3 34.1 14.0 28 13.2 WNW 13 20 7 11 1011.0 1009.9 0.0
23/02:00pm 36.4 34.6 14.4 27 13.8 WNW 17 28 9 15 1011.3 1010.2 0.0
23/01:30pm 36.1 35.6 15.8 30 12.9 NW 13 26 7 14 1012.0 1010.8 0.0
23/01:00pm 34.5 33.1 14.4 30 12.5 NW 15 24 8 13 1012.6 1011.4 0.0
23/12:30pm 33.7 32.9 15.2 33 11.6 W 13 28 7 15 1013.0 1011.8 0.0
23/12:00pm 32.4 32.6 15.8 36 10.5 S 9 13 5 7 1013.3 1012.1 0.0
23/11:30am 31.1 31.5 16.3 41 9.3 NNW 9 19 5 10 1013.8 1012.7 0.0
23/11:00am 30.0 31.0 16.4 44 8.6 NE 6 17 3 9 1014.1 1013.0 0.0
23/10:30am 28.6 29.2 16.8 48 7.4 NE 9 13 5 7 1014.4 1013.3 0.0
23/10:00am 26.5 28.0 16.7 55 6.1 E 4 9 2 5 1014.8 1013.7 0.0
23/09:30am 24.9 25.9 16.9 61 5.0 ESE 7 11 4 6 1015.1 1014.0 0.0
23/09:00am 23.1 24.2 16.6 67 4.0 SE 6 11 3 6 1015.3 1014.2 0.0
23/08:30am 21.5 22.9 16.5 73 3.1 S 4 9 2 5 1015.2 1014.1 0.0
23/08:00am 20.0 22.2 16.4 80 2.2 CALM 0 0 0 0 1015.2 1014.1 0.0
23/07:30am 18.8 21.0 16.4 86 1.5 CALM 0 0 0 0 1015.0 1013.9 0.0
23/07:00am 16.9 19.1 16.4 97 0.3 CALM 0 0 0 0 1014.7 1013.6 0.0
23/06:30am 15.4 16.5 14.6 95 0.5 WNW 2 7 1 4 1014.4 1013.3 0.0
23/06:00am 15.3 16.7 14.3 94 0.6 CALM 0 0 0 0 1014.2 1013.1 0.0
23/05:30am 15.5 17.0 14.7 95 0.5 CALM 0 0 0 0 1013.9 1012.8 0.0
23/05:00am 15.3 15.0 14.5 95 0.5 WNW 9 11 5 6 1013.6 1012.5 0.0
23/04:30am 15.7 15.6 14.9 95 0.5 N 9 11 5 6 1013.4 1012.2 0.0
23/04:00am 16.1 17.7 15.0 93 0.6 CALM 0 0 0 0 1013.7 1012.6 0.0
23/03:30am 16.4 18.0 14.9 91 0.9 CALM 0 0 0 0 1013.5 1012.4 0.0
23/03:00am 16.7 18.2 14.7 88 1.2 CALM 0 0 0 0 1013.5 1012.4 0.0
23/02:30am 17.6 19.5 15.8 89 1.1 CALM 0 0 0 0 1013.6 1012.5 0.0
23/02:00am 17.9 19.0 15.5 86 1.4 ENE 4 6 2 3 1013.9 1012.8 0.0
23/01:30am 18.7 20.0 16.1 85 1.6 SE 4 6 2 3 1013.9 1012.8 0.0
23/01:00am 18.9 19.6 15.6 81 2.0 SE 6 9 3 5 1014.1 1013.0 0.0
23/12:30am 19.5 20.4 16.0 80 2.1 SE 6 9 3 5 1014.3 1013.2 0.0
23/12:00am 20.0 20.6 15.8 77 2.5 ESE 7 11 4 6 1014.4 1013.3 0.0
 
Date/Time
EDT
Temp
°C
App
Temp
°C
Dew
Point
°C
Rel
Hum
%
Delta-T
°C
Wind Press
QNH
hPa
Press
MSL
hPa
Rain since
9am
mm
Dir  Spd
km/h
Gust
km/h
Spd
kts
Gust
kts
22/11:30pm 20.5 21.2 15.7 74 2.9 E 6 7 3 4 1014.4 1013.3 0.0
22/11:00pm 20.9 21.1 15.7 72 3.1 SE 9 11 5 6 1014.3 1013.2 0.0
22/10:30pm 21.7 22.5 15.8 69 3.6 ESE 6 9 3 5 1014.3 1013.2 0.0
22/10:00pm 22.8 21.8 15.6 64 4.4 S 15 19 8 10 1014.2 1013.1 0.0
22/09:30pm 23.5 22.1 15.5 60 4.9 S 17 22 9 12 1014.0 1012.9 0.0
22/09:00pm 24.3 22.3 15.5 58 5.4 S 20 24 11 13 1013.7 1012.6 0.0
22/08:30pm 25.1 23.0 15.1 53 6.1 S 20 28 11 15 1013.6 1012.5 0.0
22/08:00pm 26.5 23.5 14.9 49 7.1 S 24 33 13 18 1013.2 1012.0 0.0
22/07:30pm 28.1 24.3 14.7 44 8.2 S 28 39 15 21 1012.7 1011.5 0.0
22/07:00pm 29.8 25.0 14.0 38 9.6 S 32 39 17 21 1012.3 1011.1 0.0
22/06:30pm 32.0 27.8 11.2 28 12.2 SSE 24 30 13 16 1012.0 1010.8 0.0
22/06:00pm 32.8 29.8 10.8 26 12.9 S 17 24 9 13 1011.7 1010.6 0.0
22/05:30pm 33.3 30.7 9.4 23 13.7 SSW 13 19 7 10 1011.9 1010.7 0.0
22/05:00pm 33.6 30.8 6.8 19 14.8 SSW 11 20 6 11 1012.2 1011.0 0.0
22/04:30pm 33.6 30.0 6.8 19 14.8 SSW 15 24 8 13 1012.5 1011.3 0.0
22/04:00pm 33.1 30.5 7.9 21 14.1 SE 11 19 6 10 1012.8 1011.6 0.0
22/03:30pm 32.7 29.8 8.2 22 13.8 SSW 13 22 7 12 1013.1 1011.9 0.0
22/03:00pm 31.8 28.5 8.1 23 13.2 S 15 22 8 12 1013.5 1012.4 0.0
22/02:30pm 32.0 29.3 8.9 24 13.1 S 13 20 7 11 1013.9 1012.8 0.0
22/02:00pm 30.7 28.4 9.0 26 12.2 S 11 19 6 10 1014.3 1013.2 0.0
22/01:30pm 30.1 27.4 9.1 27 11.8 SSE 13 22 7 12 1014.6 1013.5 0.0
22/01:00pm 29.4 27.0 10.0 30 11.0 SSE 13 20 7 11 1015.1 1014.0 0.0
22/12:30pm 29.3 27.4 11.8 34 10.2 SSW 13 19 7 10 1015.5 1014.4 0.0
22/12:00pm 27.5 26.3 11.5 37 9.2 SE 9 22 5 12 1016.1 1015.0 0.0
22/11:30am 26.4 25.6 11.7 40 8.5 SE 7 15 4 8 1016.3 1015.2 0.0
22/11:00am 25.3 23.3 11.5 42 7.9 ESE 13 22 7 12 1016.7 1015.5 0.0
22/10:30am 24.0 23.4 12.3 48 6.7 SW 7 15 4 8 1017.1 1015.9 0.0
22/10:00am 23.7 22.9 13.0 51 6.2 ESE 9 15 5 8 1017.3 1016.1 0.0
22/09:30am 22.8 23.0 14.1 58 5.1 SE 6 15 3 8 1017.4 1016.2 0.0
22/09:00am 21.4 21.9 15.0 67 3.8 SE 6 13 3 7 1017.5 1016.4 0.0
22/08:30am 19.6 20.0 14.8 74 2.8 E 6 9 3 5 1017.5 1016.4 0.0
22/08:00am 17.8 18.3 14.9 83 1.7 NE 6 7 3 4 1017.4 1016.2 0.0
22/07:30am 16.5 18.1 15.0 91 0.9 CALM 0 0 0 0 1017.2 1016.0 0.0
22/07:00am 14.9 16.3 14.3 96 0.3 CALM 0 0 0 0 1016.8 1015.6 0.0
22/06:30am 13.8 14.6 12.7 93 0.6 CALM 0 6 0 3 1016.3 1015.2 0.0
22/06:00am 14.1 14.7 13.0 93 0.6 E 2 6 1 3 1016.0 1014.9 0.0
22/05:30am 14.4 15.3 12.8 90 0.9 CALM 0 0 0 0 1015.7 1014.6 0.0
22/05:00am 15.4 15.2 13.6 89 1.0 SE 7 9 4 5 1015.3 1014.2 0.0
22/04:30am 16.0 14.5 14.2 89 1.0 S 15 17 8 9 1015.1 1014.0 0.0
22/04:00am 16.0 14.1 14.2 89 1.0 S 17 20 9 11 1015.1 1014.0 0.0
22/03:30am 16.1 13.9 14.3 89 1.0 S 19 20 10 11 1015.1 1014.0 0.0
22/03:00am 16.4 14.1 14.2 87 1.3 S 19 20 10 11 1015.1 1014.0 0.0
22/02:30am 16.6 14.3 14.2 86 1.4 S 19 20 10 11 1015.2 1014.1 0.0
22/02:00am 17.0 15.1 14.3 84 1.6 S 17 20 9 11 1015.4 1014.3 0.0
22/01:30am 17.3 15.0 14.2 82 1.8 S 19 20 10 11 1015.5 1014.4 0.0
22/01:00am 17.5 15.2 14.2 81 1.9 S 19 20 10 11 1015.6 1014.5 0.0
22/12:30am 18.0 16.1 14.3 79 2.1 S 17 20 9 11 1015.7 1014.6 0.0
22/12:00am 18.4 16.1 14.1 76 2.5 S 19 22 10 12 1015.5 1014.4 0.0
 
Date/Time
EDT
Temp
°C
App
Temp
°C
Dew
Point
°C
Rel
Hum
%
Delta-T
°C
Wind Press
QNH
hPa
Press
MSL
hPa
Rain since
9am
mm
Dir  Spd
km/h
Gust
km/h
Spd
kts
Gust
kts
21/11:30pm 18.9 16.4 14.0 73 2.8 S 20 26 11 14 1015.3 1014.2 0.0
21/11:00pm 19.3 16.7 13.9 71 3.1 S 20 24 11 13 1015.0 1013.9 0.0
21/10:30pm 19.8 17.1 13.5 67 3.6 S 20 26 11 14 1014.7 1013.6 0.0

Other Formats:

Comma delimited format used in spreadsheet applications
http://www.bom.gov.au/fwo/IDN60801/IDN60801.95758.axf

JavaScript Object Notation format (JSON) in row-major order
http://www.bom.gov.au/fwo/IDN60801/IDN60801.95758.json